Time;durP1;ratioP1;P1;durP2;ratioP2;P2;SDS_P1;SDS_P2;PMS_P1;PMS_P2;Temp;Humidity;BMP_temperature;BMP_pressure;BME280_temperature;BME280_humidity;BME280_pressure;Samples;Min_cycle;Max_cycle;Signal;HPM_P1;HPM_P2
2023/08/14 00:02:12;;;;;;;12.70;4.70;;;;;;;20.42;100.00;99560.22;109377;1257;74778;-71
2023/08/14 00:04:40;;;;;;;9.00;4.40;;;;;;;20.46;100.00;99560.40;109427;1253;66564;-71
2023/08/14 00:07:07;;;;;;;7.80;4.20;;;;;;;20.45;100.00;99559.75;109268;1253;73179;-72
2023/08/14 00:09:34;;;;;;;7.70;4.40;;;;;;;20.45;100.00;99558.59;109443;1252;59452;-70
2023/08/14 00:12:02;;;;;;;7.00;4.20;;;;;;;20.44;100.00;99557.45;109505;1252;60045;-72
2023/08/14 00:14:29;;;;;;;10.20;4.60;;;;;;;20.41;100.00;99554.41;109472;1252;73700;-70
2023/08/14 00:16:56;;;;;;;9.10;4.40;;;;;;;20.38;100.00;99559.45;109432;1253;66329;-70
2023/08/14 00:19:24;;;;;;;10.10;4.00;;;;;;;20.36;100.00;99561.48;109346;1253;72689;-72
2023/08/14 00:21:51;;;;;;;8.30;3.90;;;;;;;20.35;100.00;99562.11;109443;1252;60507;-72
2023/08/14 00:24:18;;;;;;;12.60;4.20;;;;;;;20.33;100.00;99559.70;109380;1252;59375;-71
2023/08/14 00:26:46;;;;;;;12.30;5.10;;;;;;;20.33;100.00;99560.58;109415;1252;75134;-70
2023/08/14 00:29:13;;;;;;;10.90;4.60;;;;;;;20.33;100.00;99562.73;109467;1253;68019;-70
2023/08/14 00:31:41;;;;;;;10.70;4.20;;;;;;;20.33;100.00;99562.35;109392;1253;72641;-70
2023/08/14 00:34:08;;;;;;;6.70;4.00;;;;;;;20.33;100.00;99563.34;109403;1253;59902;-71
2023/08/14 00:36:36;;;;;;;8.10;4.70;;;;;;;20.34;100.00;99559.67;109407;1253;58831;-71
2023/08/14 00:39:03;;;;;;;8.70;4.60;;;;;;;20.35;100.00;99559.33;109377;1252;73581;-70
2023/08/14 00:41:31;;;;;;;6.40;4.20;;;;;;;20.34;100.00;99561.67;109419;1253;66555;-70
2023/08/14 00:43:58;;;;;;;6.90;4.20;;;;;;;20.32;100.00;99561.66;109362;1253;71418;-72
2023/08/14 00:46:26;;;;;;;11.60;4.30;;;;;;;20.29;100.00;99560.09;109281;1253;60062;-71
2023/08/14 00:48:53;;;;;;;12.50;4.80;;;;;;;20.27;100.00;99562.31;109235;1252;60446;-70
2023/08/14 00:51:21;;;;;;;7.70;4.20;;;;;;;20.25;100.00;99564.37;109451;1252;74742;-70
2023/08/14 00:53:49;;;;;;;9.50;4.30;;;;;;;20.22;100.00;99561.78;109091;1253;67779;-70
2023/08/14 00:56:17;;;;;;;10.90;5.40;;;;;;;20.19;100.00;99570.14;109416;1252;70980;-72
2023/08/14 00:58:44;;;;;;;10.10;5.00;;;;;;;20.16;100.00;99569.96;109137;1253;60383;-70
2023/08/14 01:01:11;;;;;;;8.70;4.80;;;;;;;20.14;100.00;99570.09;109432;1253;60040;-72
2023/08/14 01:03:39;;;;;;;10.40;4.60;;;;;;;20.15;100.00;99566.76;109293;1253;74664;-71
2023/08/14 01:06:06;;;;;;;7.80;4.40;;;;;;;20.14;100.00;99565.30;109429;1252;67747;-71
2023/08/14 01:08:34;;;;;;;8.90;4.60;;;;;;;20.14;100.00;99565.89;109455;1253;73313;-70
2023/08/14 01:11:06;;;;;;;10.80;4.40;;;;;;;20.14;100.00;99571.28;109402;1253;62264;-70
2023/08/14 01:13:42;;;;;;;10.20;4.50;;;;;;;20.14;100.00;99570.95;109229;1253;166292;-70
2023/08/14 01:16:11;;;;;;;9.90;4.90;;;;;;;20.13;100.00;99572.75;109144;1253;74758;-71
2023/08/14 01:18:39;;;;;;;8.70;4.80;;;;;;;20.13;100.00;99571.41;109202;1253;68825;-71
2023/08/14 01:21:31;;;;;;;11.20;4.60;;;;;;;20.15;100.00;99576.05;109502;1253;72646;-70
2023/08/14 01:24:34;;;;;;;8.80;4.30;;;;;;;20.17;100.00;99570.11;109260;1252;58984;-70
2023/08/14 01:27:01;;;;;;;8.50;4.70;;;;;;;20.18;100.00;99572.77;109097;1253;60127;-71
2023/08/14 01:29:30;;;;;;;9.30;4.30;;;;;;;20.17;100.00;99574.28;109370;1253;74670;-70
2023/08/14 01:31:57;;;;;;;6.00;3.60;;;;;;;20.17;100.00;99572.16;109410;1253;67619;-71
2023/08/14 01:34:25;;;;;;;9.90;4.80;;;;;;;20.16;100.00;99575.48;109372;1252;71572;-72
2023/08/14 01:37:05;;;;;;;9.60;4.20;;;;;;;20.17;100.00;99574.88;109399;1252;59225;-70
2023/08/14 01:39:39;;;;;;;8.00;4.20;;;;;;;20.17;100.00;99576.82;109266;1253;58887;-72
2023/08/14 01:42:18;;;;;;;12.80;4.90;;;;;;;20.17;100.00;99575.57;109222;1252;73870;-71
2023/08/14 01:44:48;;;;;;;7.00;4.10;;;;;;;20.15;100.00;99576.23;109119;1253;66452;-71
2023/08/14 01:47:16;;;;;;;9.30;4.50;;;;;;;20.13;100.00;99572.39;109240;1253;72753;-71
2023/08/14 01:49:43;;;;;;;6.30;3.50;;;;;;;20.10;100.00;99575.97;109223;1253;61727;-70
2023/08/14 01:52:11;;;;;;;8.00;3.90;;;;;;;20.06;100.00;99578.34;109193;1253;59245;-71
2023/08/14 01:54:39;;;;;;;6.80;3.20;;;;;;;20.01;100.00;99573.14;109454;1253;73581;-71
2023/08/14 01:57:06;;;;;;;6.70;3.80;;;;;;;19.99;100.00;99571.95;109394;1253;66452;-70
2023/08/14 01:59:41;;;;;;;8.00;3.90;;;;;;;19.97;100.00;99575.67;109254;1253;72700;-70
2023/08/14 02:02:10;;;;;;;10.60;4.40;;;;;;;19.96;100.00;99573.13;109415;1253;60115;-72
2023/08/14 02:04:37;;;;;;;8.30;3.80;;;;;;;19.95;100.00;99573.55;109144;1252;60534;-72
2023/08/14 02:07:09;;;;;;;5.10;3.90;;;;;;;19.93;100.00;99575.61;109408;1252;75306;-71
2023/08/14 02:09:37;;;;;;;6.80;3.80;;;;;;;19.91;100.00;99578.80;109430;1252;67027;-71
2023/08/14 02:12:05;;;;;;;7.60;3.90;;;;;;;19.89;100.00;99576.70;109530;1253;72739;-72
2023/08/14 02:14:32;;;;;;;10.00;3.80;;;;;;;19.85;100.00;99576.59;109351;1257;60038;-70
2023/08/14 02:17:00;;;;;;;11.40;3.60;;;;;;;19.75;100.00;99578.85;109219;1253;59034;-70
2023/08/14 02:19:27;;;;;;;10.80;3.70;;;;;;;19.67;100.00;99580.84;109389;1253;74637;-73
2023/08/14 02:21:54;;;;;;;13.20;3.90;;;;;;;19.61;100.00;99578.45;109232;1253;67850;-70
2023/08/14 02:24:22;;;;;;;4.50;3.40;;;;;;;19.55;100.00;99578.95;109357;1253;72649;-70
2023/08/14 02:26:49;;;;;;;5.90;3.20;;;;;;;19.50;100.00;99580.80;109357;1252;60378;-71
2023/08/14 02:29:17;;;;;;;4.70;3.80;;;;;;;19.49;100.00;99583.41;109355;1253;60015;-72
2023/08/14 02:31:47;;;;;;;6.70;3.40;;;;;;;19.47;100.00;99586.45;109254;1254;74627;-70
2023/08/14 02:34:41;;;;;;;4.40;3.40;;;;;;;19.47;100.00;99586.29;109598;1252;67315;-70
2023/08/14 02:37:09;;;;;;;7.70;3.30;;;;;;;19.46;100.00;99588.11;109556;1253;72730;-71
2023/08/14 02:39:37;;;;;;;4.40;3.50;;;;;;;19.47;100.00;99588.39;109478;1253;58880;-71
2023/08/14 02:42:06;;;;;;;8.00;3.10;;;;;;;19.48;100.00;99586.77;109565;1253;60342;-70
2023/08/14 02:44:34;;;;;;;6.20;3.70;;;;;;;19.50;100.00;99588.11;109497;1253;75107;-70
2023/08/14 02:47:01;;;;;;;9.20;2.90;;;;;;;19.52;100.00;99589.23;109533;1253;67563;-71
2023/08/14 02:49:29;;;;;;;3.30;2.80;;;;;;;19.56;100.00;99586.11;109467;1253;74614;-71
2023/08/14 02:51:56;;;;;;;6.50;3.60;;;;;;;19.62;100.00;99586.67;109306;1253;58979;-70
2023/08/14 02:54:24;;;;;;;5.80;3.70;;;;;;;19.67;100.00;99587.90;109494;1253;60105;-71
2023/08/14 02:56:51;;;;;;;4.20;3.00;;;;;;;19.71;100.00;99586.81;109517;1253;73404;-71
2023/08/14 02:59:21;;;;;;;4.20;3.10;;;;;;;19.73;100.00;99587.73;109573;1252;69100;-71
2023/08/14 03:01:49;;;;;;;5.40;3.20;;;;;;;19.75;100.00;99592.29;109514;1253;71550;-71
2023/08/14 03:04:16;;;;;;;4.10;3.30;;;;;;;19.75;100.00;99595.08;109519;1254;61681;-71
2023/08/14 03:06:44;;;;;;;8.00;3.40;;;;;;;19.70;100.00;99597.92;109535;1253;58997;-69
2023/08/14 03:09:11;;;;;;;4.20;2.80;;;;;;;19.65;100.00;99602.09;109473;1256;74568;-70
2023/08/14 03:11:39;;;;;;;4.80;3.10;;;;;;;19.61;100.00;99603.42;109538;1254;66597;-70
2023/08/14 03:14:06;;;;;;;6.20;4.00;;;;;;;19.59;100.00;99608.91;109370;1253;72632;-69
2023/08/14 03:16:34;;;;;;;3.90;3.10;;;;;;;19.57;100.00;99612.85;109490;1252;60584;-70
2023/08/14 03:19:01;;;;;;;6.30;3.00;;;;;;;19.55;100.00;99616.14;109516;1254;60115;-70
2023/08/14 03:21:29;;;;;;;9.90;3.30;;;;;;;19.55;100.00;99624.03;109561;1252;73374;-70
2023/08/14 03:23:56;;;;;;;6.60;3.10;;;;;;;19.59;100.00;99626.73;109521;1255;65840;-70
2023/08/14 03:26:24;;;;;;;7.00;3.40;;;;;;;19.65;100.00;99626.21;109457;1253;71090;-70
2023/08/14 03:28:51;;;;;;;5.50;3.50;;;;;;;19.86;100.00;99623.48;109329;1253;59114;-70
2023/08/14 03:31:19;;;;;;;6.60;3.20;;;;;;;19.98;100.00;99616.73;109390;1253;60052;-72
2023/08/14 03:33:46;;;;;;;4.90;3.10;;;;;;;20.10;100.00;99616.77;109367;1253;74662;-68
2023/08/14 03:36:14;;;;;;;6.70;3.20;;;;;;;20.23;100.00;99617.63;109392;1253;67925;-70
2023/08/14 03:38:41;;;;;;;7.40;3.30;;;;;;;20.41;100.00;99614.77;109434;1253;72722;-70
2023/08/14 03:41:09;;;;;;;5.90;3.80;;;;;;;20.64;100.00;99612.00;109429;1254;62148;-69
2023/08/14 03:43:36;;;;;;;4.10;3.10;;;;;;;20.87;100.00;99610.75;109499;1254;60011;-69
2023/08/14 03:46:04;;;;;;;4.80;3.20;;;;;;;21.12;100.00;99607.52;109541;1253;74649;-69
2023/08/14 03:48:31;;;;;;;3.50;3.20;;;;;;;21.37;100.00;99610.86;109524;1254;68006;-70
2023/08/14 03:50:58;;;;;;;5.60;3.60;;;;;;;21.64;100.00;99613.67;109351;1254;72723;-71
2023/08/14 03:53:26;;;;;;;4.90;3.50;;;;;;;21.89;100.00;99613.88;109467;1253;58975;-70
2023/08/14 03:55:53;;;;;;;4.60;3.50;;;;;;;22.12;100.00;99613.39;109473;1253;59280;-70
2023/08/14 03:58:21;;;;;;;5.30;3.30;;;;;;;22.33;100.00;99608.64;109491;1253;74682;-70
2023/08/14 04:00:48;;;;;;;3.50;2.80;;;;;;;22.52;100.00;99608.02;109546;1253;66810;-70
2023/08/14 04:03:16;;;;;;;4.00;3.10;;;;;;;22.71;100.00;99605.92;109496;1253;72490;-70
2023/08/14 04:05:44;;;;;;;5.00;2.80;;;;;;;22.96;100.00;99614.75;109442;1254;59835;-71
2023/08/14 04:08:11;;;;;;;5.10;3.00;;;;;;;23.19;100.00;99611.59;109525;1254;59848;-70
2023/08/14 04:10:38;;;;;;;6.50;3.10;;;;;;;23.41;100.00;99616.05;109314;1252;74670;-71
2023/08/14 04:13:06;;;;;;;7.40;3.20;;;;;;;23.64;100.00;99617.62;109418;1253;66798;-70
2023/08/14 04:15:33;;;;;;;3.70;2.80;;;;;;;23.88;100.00;99623.41;109356;1254;71267;-71
2023/08/14 04:18:01;;;;;;;5.70;3.20;;;;;;;24.14;100.00;99621.46;109262;1254;60046;-69
2023/08/14 04:20:28;;;;;;;3.40;2.80;;;;;;;24.36;100.00;99620.56;109405;1253;60037;-68
2023/08/14 04:22:55;;;;;;;7.30;2.90;;;;;;;24.56;100.00;99621.96;109221;1257;74760;-70
2023/08/14 04:25:23;;;;;;;4.90;2.90;;;;;;;24.75;100.00;99622.16;109469;1253;67582;-68
2023/08/14 04:27:51;;;;;;;4.00;2.90;;;;;;;24.94;100.00;99619.78;109373;1254;72604;-70
2023/08/14 04:30:18;;;;;;;7.20;3.10;;;;;;;25.17;100.00;99619.95;109390;1254;58942;-70
2023/08/14 04:32:45;;;;;;;6.40;2.90;;;;;;;25.42;100.00;99624.37;109399;1254;60055;-70
2023/08/14 04:35:13;;;;;;;4.30;2.60;;;;;;;25.69;100.00;99625.48;109392;1253;73817;-72
2023/08/14 04:37:41;;;;;;;4.90;3.00;;;;;;;25.96;100.00;99625.48;109381;1253;66017;-73
2023/08/14 04:40:09;;;;;;;4.10;3.10;;;;;;;26.19;100.00;99626.79;109278;1254;72685;-70
2023/08/14 04:42:36;;;;;;;4.00;2.90;;;;;;;26.45;100.00;99622.98;109408;1253;60166;-71
2023/08/14 04:45:07;;;;;;;6.20;3.00;;;;;;;26.69;100.00;99625.85;109300;1253;60697;-69
2023/08/14 04:47:35;;;;;;;3.70;2.50;;;;;;;26.91;100.00;99626.05;109404;1254;75263;-70
2023/08/14 04:50:04;;;;;;;4.50;2.70;;;;;;;27.17;100.00;99623.80;109334;1253;67859;-71
2023/08/14 04:52:31;;;;;;;4.30;2.50;;;;;;;27.36;100.00;99622.73;109278;1254;71390;-69
2023/08/14 04:54:59;;;;;;;5.90;3.30;;;;;;;27.54;100.00;99623.77;109245;1254;60207;-72
2023/08/14 04:57:29;;;;;;;4.80;2.90;;;;;;;27.77;100.00;99624.67;109387;1253;59129;-73
2023/08/14 04:59:56;;;;;;;5.50;2.80;;;;;;;27.97;98.73;99621.86;109353;1253;73392;-70
2023/08/14 05:02:24;;;;;;;4.50;2.70;;;;;;;28.11;96.92;99621.34;109268;1253;66732;-71
2023/08/14 05:04:51;;;;;;;4.70;2.70;;;;;;;28.23;95.35;99620.39;109340;1254;72741;-69
2023/08/14 05:07:19;;;;;;;5.60;2.90;;;;;;;28.36;94.39;99618.29;109271;1254;58919;-70
2023/08/14 05:09:48;;;;;;;5.90;2.60;;;;;;;28.56;92.79;99618.93;109300;1253;59087;-68
2023/08/14 05:12:15;;;;;;;8.30;3.50;;;;;;;28.77;90.96;99619.40;109364;1254;74663;-72
2023/08/14 05:14:43;;;;;;;4.30;2.70;;;;;;;28.94;88.86;99620.25;109366;1254;67002;-70
2023/08/14 05:17:11;;;;;;;7.50;3.10;;;;;;;29.10;86.96;99619.73;109305;1253;73125;-69
2023/08/14 05:19:38;;;;;;;4.80;2.80;;;;;;;29.25;86.11;99621.16;109386;1253;59086;-69
2023/08/14 05:22:05;;;;;;;8.10;2.90;;;;;;;29.34;85.20;99622.27;109426;1253;60046;-69
2023/08/14 05:24:33;;;;;;;4.60;2.50;;;;;;;29.48;83.59;99621.02;109491;1254;73317;-69
2023/08/14 05:27:00;;;;;;;3.90;2.70;;;;;;;29.59;82.01;99621.39;109425;1253;66265;-70
2023/08/14 05:29:28;;;;;;;3.10;2.60;;;;;;;29.72;81.32;99621.58;109468;1252;72684;-70
2023/08/14 05:31:55;;;;;;;3.90;3.10;;;;;;;29.90;79.77;99621.23;109464;1252;58941;-71
2023/08/14 05:34:22;;;;;;;5.60;3.00;;;;;;;30.06;78.98;99622.66;109507;1253;58901;-70
2023/08/14 05:36:50;;;;;;;8.40;3.00;;;;;;;30.21;77.60;99625.33;109419;1253;73349;-68
2023/08/14 05:39:18;;;;;;;5.50;3.00;;;;;;;30.40;76.93;99629.64;109476;1253;70563;-71
2023/08/14 05:41:45;;;;;;;6.60;3.30;;;;;;;30.54;75.77;99620.81;109433;1253;72702;-69
2023/08/14 05:44:13;;;;;;;5.30;2.60;;;;;;;30.68;74.87;99622.37;109448;1252;59105;-69
2023/08/14 05:46:43;;;;;;;4.20;3.10;;;;;;;30.89;74.01;99629.55;109526;1252;59242;-71
2023/08/14 05:49:15;;;;;;;7.30;3.10;;;;;;;31.10;73.00;99634.42;109423;1252;74671;-71
2023/08/14 05:51:44;;;;;;;6.10;3.20;;;;;;;31.20;70.99;99637.45;109472;1253;66492;-69
2023/08/14 05:54:11;;;;;;;6.00;2.80;;;;;;;31.25;70.31;99641.33;109429;1253;73185;-74
2023/08/14 05:56:39;;;;;;;9.90;3.40;;;;;;;31.36;69.71;99637.45;109486;1253;60028;-72
2023/08/14 05:59:06;;;;;;;7.40;3.20;;;;;;;31.44;69.53;99638.05;109420;1252;58851;-70
2023/08/14 06:01:34;;;;;;;21.50;3.80;;;;;;;31.57;69.40;99638.00;109506;1253;74659;-69
2023/08/14 06:04:01;;;;;;;4.40;2.90;;;;;;;31.71;68.63;99634.66;109438;1253;66639;-69
2023/08/14 06:06:29;;;;;;;5.60;2.90;;;;;;;31.86;68.11;99642.70;109479;1253;73083;-72
2023/08/14 06:08:56;;;;;;;7.00;3.00;;;;;;;31.95;66.98;99645.98;109403;1253;59350;-70
2023/08/14 06:11:27;;;;;;;7.40;3.10;;;;;;;31.98;66.34;99647.64;109440;1252;58853;-67
2023/08/14 06:13:55;;;;;;;4.20;3.00;;;;;;;32.05;66.46;99646.53;109430;1253;73779;-66
2023/08/14 06:16:22;;;;;;;9.40;3.30;;;;;;;32.17;65.86;99643.08;109549;1252;68156;-68
2023/08/14 06:18:50;;;;;;;6.60;3.20;;;;;;;32.27;65.49;99644.23;109420;1253;73142;-69
2023/08/14 06:21:17;;;;;;;4.40;3.10;;;;;;;32.40;64.99;99647.87;109523;1252;60050;-72
2023/08/14 06:23:45;;;;;;;6.50;3.50;;;;;;;32.49;64.99;99642.16;109457;1254;59537;-67
2023/08/14 06:26:12;;;;;;;6.50;3.10;;;;;;;32.61;64.55;99644.98;109404;1254;72807;-67
2023/08/14 06:28:40;;;;;;;5.00;3.20;;;;;;;32.70;64.05;99646.04;109494;1252;67675;-68
2023/08/14 06:31:08;;;;;;;5.30;2.90;;;;;;;32.90;63.86;99644.67;109443;1253;72715;-69
2023/08/14 06:33:36;;;;;;;8.10;3.40;;;;;;;33.17;63.02;99646.73;109477;1252;60694;-68
2023/08/14 06:36:05;;;;;;;9.00;3.20;;;;;;;33.38;61.92;99647.60;109513;1252;60051;-69
2023/08/14 06:38:34;;;;;;;6.90;3.10;;;;;;;33.56;60.90;99645.10;109423;1253;74658;-69
2023/08/14 06:41:01;;;;;;;7.40;2.80;;;;;;;33.59;59.45;99647.77;109494;1252;67577;-68
2023/08/14 06:43:28;;;;;;;5.60;3.10;;;;;;;33.62;59.37;99648.23;109406;1252;71368;-69
2023/08/14 06:45:56;;;;;;;7.50;2.70;;;;;;;33.74;59.46;99646.38;109514;1253;58878;-69
2023/08/14 06:48:23;;;;;;;7.70;3.50;;;;;;;33.86;59.12;99643.92;109487;1253;60008;-69
2023/08/14 06:50:52;;;;;;;6.90;3.00;;;;;;;33.90;58.54;99644.91;109567;1253;73408;-70
2023/08/14 06:53:19;;;;;;;6.50;2.70;;;;;;;34.00;58.32;99637.35;109407;1252;67648;-68
2023/08/14 06:55:47;;;;;;;4.50;2.90;;;;;;;34.22;58.78;99639.16;109467;1253;71447;-69
2023/08/14 06:58:14;;;;;;;6.70;2.60;;;;;;;34.36;57.77;99637.23;109473;1252;60028;-70
2023/08/14 07:00:42;;;;;;;5.80;2.80;;;;;;;34.40;57.64;99635.73;109465;1252;59371;-68
2023/08/14 07:03:09;;;;;;;6.90;3.00;;;;;;;34.50;56.24;99638.60;109448;1253;74703;-68
2023/08/14 07:05:37;;;;;;;5.60;3.10;;;;;;;34.62;55.04;99639.48;109499;1252;66300;-69
2023/08/14 07:08:04;;;;;;;9.60;2.90;;;;;;;34.74;55.11;99640.91;109427;1253;72765;-69
2023/08/14 07:10:32;;;;;;;4.40;2.60;;;;;;;34.87;56.10;99642.83;109396;1253;60021;-66
2023/08/14 07:12:59;;;;;;;4.80;2.70;;;;;;;35.06;54.67;99641.48;109519;1252;59125;-67
2023/08/14 07:15:27;;;;;;;4.40;2.80;;;;;;;35.27;53.39;99641.42;109476;1251;74754;-67
2023/08/14 07:17:54;;;;;;;8.40;3.20;;;;;;;35.45;52.29;99639.74;109482;1252;67683;-68
2023/08/14 07:20:21;;;;;;;4.70;2.20;;;;;;;35.60;50.90;99638.13;109484;1252;72173;-67
2023/08/14 07:22:54;;;;;;;5.30;2.80;;;;;;;35.77;50.34;99637.01;109556;1251;60517;-67
2023/08/14 07:25:21;;;;;;;12.40;3.30;;;;;;;35.98;50.09;99641.34;109473;1252;60178;-60
2023/08/14 07:27:49;;;;;;;8.20;3.10;;;;;;;36.17;49.84;99639.88;109406;1253;73496;-72
2023/08/14 07:30:16;;;;;;;5.10;2.70;;;;;;;36.29;48.93;99643.59;109439;1252;66780;-72
2023/08/14 07:32:43;;;;;;;4.90;2.70;;;;;;;36.24;47.59;99643.61;109443;1253;71355;-72
2023/08/14 07:35:12;;;;;;;5.20;3.10;;;;;;;36.23;46.76;99645.42;109484;1253;59045;-73
2023/08/14 07:37:39;;;;;;;5.00;3.00;;;;;;;36.71;46.64;99646.98;109396;1252;60981;-74
2023/08/14 07:40:07;;;;;;;6.80;3.00;;;;;;;37.53;45.58;99647.75;109442;1253;73429;-73
2023/08/14 07:42:34;;;;;;;8.00;3.20;;;;;;;38.39;42.83;99642.73;109540;1252;65834;-72
2023/08/14 07:45:02;;;;;;;6.50;2.80;;;;;;;39.11;39.89;99642.45;109530;1253;72811;-72
2023/08/14 07:47:29;;;;;;;7.20;3.50;;;;;;;39.79;37.53;99644.77;109464;1252;59375;-76
2023/08/14 07:49:57;;;;;;;6.80;3.20;;;;;;;40.44;36.34;99643.39;109475;1252;58972;-74
2023/08/14 07:52:25;;;;;;;6.70;3.20;;;;;;;41.10;34.53;99646.89;109517;1253;74653;-75
2023/08/14 07:54:53;;;;;;;7.50;3.00;;;;;;;41.56;33.90;99645.92;109550;1252;66277;-73
2023/08/14 07:57:20;;;;;;;8.50;3.40;;;;;;;41.80;32.81;99651.16;109537;1252;72031;-74
2023/08/14 07:59:48;;;;;;;8.30;3.10;;;;;;;42.06;30.77;99646.94;109409;1252;61035;-66
2023/08/14 08:02:15;;;;;;;7.30;3.10;;;;;;;42.33;30.27;99649.77;109468;1252;58888;-69
2023/08/14 08:04:43;;;;;;;6.30;3.30;;;;;;;42.67;29.81;99647.86;109497;1252;74968;-69
2023/08/14 08:07:11;;;;;;;5.00;2.90;;;;;;;42.95;29.19;99647.67;109493;1252;68700;-68
2023/08/14 08:09:38;;;;;;;17.10;3.50;;;;;;;43.02;29.44;99647.59;109462;1252;72726;-69
2023/08/14 08:12:06;;;;;;;6.50;2.70;;;;;;;42.53;30.44;99650.70;109522;1252;60052;-68
2023/08/14 08:14:34;;;;;;;5.30;3.50;;;;;;;41.91;30.41;99652.84;109471;1253;59190;-66
2023/08/14 08:17:02;;;;;;;6.30;3.20;;;;;;;41.23;30.59;99652.80;109505;1252;73885;-68
2023/08/14 08:19:29;;;;;;;4.60;2.60;;;;;;;40.68;31.36;99654.59;109528;1252;68102;-66
2023/08/14 08:21:57;;;;;;;3.40;2.40;;;;;;;40.16;32.06;99655.63;109443;1253;72668;-69
2023/08/14 08:24:24;;;;;;;4.30;2.20;;;;;;;39.67;32.45;99659.26;109419;1252;59216;-68
2023/08/14 08:26:51;;;;;;;3.20;2.20;;;;;;;39.05;32.88;99659.21;109426;1251;58895;-70
2023/08/14 08:29:19;;;;;;;8.00;2.50;;;;;;;38.78;33.05;99657.63;109502;1252;74695;-70
2023/08/14 08:31:46;;;;;;;7.20;2.60;;;;;;;39.14;33.09;99656.98;109466;1252;67611;-69
2023/08/14 08:34:14;;;;;;;4.80;2.30;;;;;;;39.96;32.00;99653.31;109459;1252;73072;-76
2023/08/14 08:36:41;;;;;;;4.60;2.40;;;;;;;40.85;30.62;99652.65;109454;1252;59498;-73
2023/08/14 08:39:12;;;;;;;5.50;2.30;;;;;;;41.66;29.75;99656.08;109390;1252;58919;-71
2023/08/14 08:41:43;;;;;;;5.30;2.70;;;;;;;42.20;28.70;99654.61;109403;1252;74626;-72
2023/08/14 08:44:26;;;;;;;6.80;2.50;;;;;;;42.30;28.85;99658.11;109444;1253;67593;-71
2023/08/14 08:46:57;;;;;;;4.80;2.20;;;;;;;42.47;28.05;99660.60;109152;1253;71806;-73
2023/08/14 08:49:25;;;;;;;5.00;2.20;;;;;;;42.79;27.42;99658.48;109434;1252;59383;-75
2023/08/14 08:51:55;;;;;;;9.30;2.40;;;;;;;42.97;27.15;99661.20;109298;1253;59023;-72
2023/08/14 08:54:22;;;;;;;4.40;2.30;;;;;;;43.09;26.45;99661.18;109421;1253;74659;-72
2023/08/14 08:56:50;;;;;;;2.40;2.20;;;;;;;43.08;25.98;99660.38;109344;1252;67939;-72
2023/08/14 08:59:17;;;;;;;4.00;2.30;;;;;;;43.17;25.99;99655.77;109414;1252;71892;-70
2023/08/14 09:01:49;;;;;;;2.80;2.30;;;;;;;43.39;25.37;99657.39;109283;1253;60077;-71
2023/08/14 09:04:16;;;;;;;2.30;2.10;;;;;;;43.14;24.83;99657.33;109393;1252;59038;-70
2023/08/14 09:06:44;;;;;;;4.30;1.90;;;;;;;42.40;24.87;99661.85;109395;1252;74607;-75
2023/08/14 09:09:12;;;;;;;4.50;2.20;;;;;;;41.69;25.81;99662.91;109399;1252;67749;-71
2023/08/14 09:11:40;;;;;;;2.70;1.80;;;;;;;41.06;26.59;99662.65;109428;1252;71390;-71
2023/08/14 09:14:07;;;;;;;4.00;2.60;;;;;;;40.50;26.62;99662.47;109353;1252;60087;-71
2023/08/14 09:16:34;;;;;;;3.50;2.30;;;;;;;40.03;27.07;99664.30;109426;1252;62129;-69
2023/08/14 09:19:02;;;;;;;3.80;2.20;;;;;;;39.75;27.53;99664.41;109400;1252;74744;-72
2023/08/14 09:21:29;;;;;;;3.00;1.80;;;;;;;39.53;28.05;99665.61;109453;1252;67771;-73
2023/08/14 09:23:57;;;;;;;7.60;2.20;;;;;;;39.42;28.30;99671.54;109157;1253;72672;-71
2023/08/14 09:26:24;;;;;;;3.30;1.90;;;;;;;39.35;28.45;99670.06;109309;1253;60116;-72
2023/08/14 09:28:51;;;;;;;3.00;2.20;;;;;;;39.34;28.68;99672.67;109439;1252;59965;-69
2023/08/14 09:31:19;;;;;;;6.50;2.20;;;;;;;39.32;28.35;99669.92;109372;1252;74631;-69
2023/08/14 09:33:47;;;;;;;8.20;2.40;;;;;;;39.10;28.79;99669.92;109385;1253;67936;-71
2023/08/14 09:36:14;;;;;;;5.00;2.10;;;;;;;38.94;30.09;99666.74;109414;1252;72667;-73
2023/08/14 09:38:42;;;;;;;3.20;2.00;;;;;;;38.82;30.13;99668.95;109197;1253;60125;-71
2023/08/14 09:41:10;;;;;;;4.00;2.40;;;;;;;38.71;29.95;99670.91;109395;1252;60481;-71
2023/08/14 09:43:37;;;;;;;2.80;2.20;;;;;;;38.64;30.25;99667.83;109444;1252;75119;-71
2023/08/14 09:46:05;;;;;;;3.30;1.90;;;;;;;38.64;30.44;99665.92;109426;1252;67749;-71
2023/08/14 09:48:43;;;;;;;4.30;2.10;;;;;;;38.64;29.83;99665.52;109363;1252;72673;-73
2023/08/14 09:51:11;;;;;;;3.70;2.40;;;;;;;38.76;30.05;99665.89;109386;1252;58947;-72
2023/08/14 09:53:50;;;;;;;5.60;2.40;;;;;;;38.86;30.55;99667.34;109369;1253;59321;-73
2023/08/14 09:56:18;;;;;;;5.40;2.30;;;;;;;38.92;30.74;99664.71;109434;1253;74632;-72
2023/08/14 09:58:46;;;;;;;3.70;1.90;;;;;;;39.02;30.69;99665.86;109366;1253;67616;-71
2023/08/14 10:01:18;;;;;;;5.00;2.20;;;;;;;39.05;30.52;99664.19;109398;1252;72703;-70
2023/08/14 10:03:46;;;;;;;3.50;2.00;;;;;;;38.96;30.22;99665.76;109419;1252;59207;-71
2023/08/14 10:06:14;;;;;;;3.50;2.30;;;;;;;38.90;29.98;99668.38;109514;1252;59418;-71
2023/08/14 10:08:43;;;;;;;4.20;2.10;;;;;;;38.86;29.57;99669.23;109414;1252;74705;-69
2023/08/14 10:11:11;;;;;;;3.30;2.10;;;;;;;38.80;29.33;99669.92;109444;1252;66430;-68
2023/08/14 10:13:48;;;;;;;2.70;2.00;;;;;;;38.68;30.01;99670.58;109439;1252;72637;-68
2023/08/14 10:16:23;;;;;;;6.40;2.50;;;;;;;38.63;30.30;99672.79;109351;1252;61317;-68
2023/08/14 10:18:53;;;;;;;2.30;1.70;;;;;;;38.58;29.76;99671.38;109334;1253;58918;-71
2023/08/14 10:21:21;;;;;;;5.60;2.30;;;;;;;38.43;30.60;99671.73;109494;1252;74635;-71
2023/08/14 10:23:48;;;;;;;2.90;2.40;;;;;;;38.35;30.84;99666.05;109496;1252;66738;-71
2023/08/14 10:26:16;;;;;;;4.10;2.00;;;;;;;38.06;30.35;99668.77;109327;1252;72760;-71
2023/08/14 10:28:43;;;;;;;4.90;2.10;;;;;;;37.64;31.34;99668.13;109419;1253;60062;-71
2023/08/14 10:31:11;;;;;;;2.30;2.10;;;;;;;37.34;31.56;99670.06;109483;1252;60631;-70
2023/08/14 10:33:38;;;;;;;3.30;2.00;;;;;;;37.06;32.53;99667.30;109394;1253;74692;-70
2023/08/14 10:36:06;;;;;;;4.00;2.20;;;;;;;36.71;32.76;99666.67;109413;1252;67573;-72
2023/08/14 10:38:45;;;;;;;3.10;1.90;;;;;;;36.38;33.51;99663.89;109365;1253;72651;-68
2023/08/14 10:41:14;;;;;;;2.50;1.80;;;;;;;36.08;33.87;99663.06;109388;1252;58980;-70
2023/08/14 10:43:42;;;;;;;2.60;1.90;;;;;;;35.92;34.17;99659.69;109420;1252;60429;-69
2023/08/14 10:46:10;;;;;;;3.70;2.20;;;;;;;35.86;34.40;99660.92;109404;1252;74683;-77
2023/08/14 10:48:38;;;;;;;3.60;1.80;;;;;;;35.80;35.01;99657.08;109511;1252;66623;-75
2023/08/14 10:51:07;;;;;;;2.70;1.90;;;;;;;35.79;35.70;99663.34;109409;1252;71676;-76
2023/08/14 10:53:35;;;;;;;3.00;2.00;;;;;;;35.74;35.15;99665.44;109504;1252;60121;-73
2023/08/14 10:56:04;;;;;;;4.20;2.00;;;;;;;35.58;35.82;99665.61;109476;1252;61498;-71
2023/08/14 10:58:31;;;;;;;2.70;1.80;;;;;;;35.44;36.11;99657.09;109511;1252;73347;-69
2023/08/14 11:00:59;;;;;;;5.50;1.90;;;;;;;35.40;36.77;99658.89;109471;1252;66653;-69
2023/08/14 11:03:27;;;;;;;4.20;2.00;;;;;;;35.54;36.97;99659.50;109480;1251;72660;-68
2023/08/14 11:05:55;;;;;;;4.50;2.10;;;;;;;35.84;36.20;99651.69;109318;1252;59634;-68
2023/08/14 11:08:23;;;;;;;3.20;2.20;;;;;;;36.03;35.96;99652.01;109450;1252;58999;-68
2023/08/14 11:10:50;;;;;;;7.50;2.30;;;;;;;36.19;34.88;99653.30;109470;1252;72970;-69
2023/08/14 11:13:18;;;;;;;2.10;1.90;;;;;;;36.30;34.50;99652.02;109265;1253;68021;-69
2023/08/14 11:15:45;;;;;;;6.00;2.30;;;;;;;36.40;35.28;99652.73;109434;1252;71437;-75
2023/08/14 11:18:13;;;;;;;3.80;2.40;;;;;;;36.48;35.38;99653.11;109458;1252;59260;-83
2023/08/14 11:20:42;;;;;;;4.50;2.30;;;;;;;36.50;34.84;99652.35;109392;1252;59768;-75
2023/08/14 11:23:09;;;;;;;5.10;2.20;;;;;;;36.54;34.86;99652.95;109331;1252;73938;-72
2023/08/14 11:25:37;;;;;;;4.00;2.30;;;;;;;36.31;34.47;99647.28;109349;1253;68385;-71
2023/08/14 11:28:05;;;;;;;3.00;2.30;;;;;;;35.93;35.20;99646.52;109333;1252;72648;-70